sensor_id;sensor_type;location;lat;lon;timestamp;pressure;altitude;pressure_sealevel;temperature;humidity
7660;BME280;3872;47.902;8.162;2023-05-29T00:00:57;91934.94;;;11.56;98.25
7660;BME280;3872;47.902;8.162;2023-05-29T00:03:25;91928.41;;;10.90;100.00
7660;BME280;3872;47.902;8.162;2023-05-29T00:05:51;91941.22;;;11.33;100.00
7660;BME280;3872;47.902;8.162;2023-05-29T00:08:18;91935.00;;;11.29;100.00
7660;BME280;3872;47.902;8.162;2023-05-29T00:10:44;91936.94;;;11.23;100.00
7660;BME280;3872;47.902;8.162;2023-05-29T00:13:11;91933.41;;;11.42;100.00
7660;BME280;3872;47.902;8.162;2023-05-29T00:15:37;91932.47;;;11.60;99.33
7660;BME280;3872;47.902;8.162;2023-05-29T00:18:05;91927.69;;;11.62;100.00
7660;BME280;3872;47.902;8.162;2023-05-29T00:20:32;91937.63;;;11.29;100.00
7660;BME280;3872;47.902;8.162;2023-05-29T00:22:59;91929.44;;;11.17;100.00
7660;BME280;3872;47.902;8.162;2023-05-29T00:25:27;91929.97;;;10.78;100.00
7660;BME280;3872;47.902;8.162;2023-05-29T00:27:53;91927.91;;;10.61;100.00
7660;BME280;3872;47.902;8.162;2023-05-29T00:30:20;91933.66;;;11.18;100.00
7660;BME280;3872;47.902;8.162;2023-05-29T00:32:47;91934.25;;;10.74;100.00
7660;BME280;3872;47.902;8.162;2023-05-29T00:35:15;91938.44;;;10.75;100.00
7660;BME280;3872;47.902;8.162;2023-05-29T00:37:42;91938.34;;;10.66;100.00
7660;BME280;3872;47.902;8.162;2023-05-29T00:40:10;91932.91;;;10.76;100.00
7660;BME280;3872;47.902;8.162;2023-05-29T00:42:37;91935.72;;;10.66;100.00
7660;BME280;3872;47.902;8.162;2023-05-29T00:45:05;91928.41;;;10.63;100.00
7660;BME280;3872;47.902;8.162;2023-05-29T00:47:32;91929.59;;;10.84;100.00
7660;BME280;3872;47.902;8.162;2023-05-29T00:50:01;91924.03;;;10.86;100.00
7660;BME280;3872;47.902;8.162;2023-05-29T00:52:30;91928.78;;;10.43;100.00
7660;BME280;3872;47.902;8.162;2023-05-29T00:54:56;91930.66;;;10.56;100.00
7660;BME280;3872;47.902;8.162;2023-05-29T00:57:26;91933.06;;;10.06;100.00
7660;BME280;3872;47.902;8.162;2023-05-29T00:59:53;91924.72;;;10.78;100.00
7660;BME280;3872;47.902;8.162;2023-05-29T01:02:21;91922.09;;;10.78;100.00
7660;BME280;3872;47.902;8.162;2023-05-29T01:04:49;91929.19;;;10.50;100.00
7660;BME280;3872;47.902;8.162;2023-05-29T01:07:19;91934.06;;;10.70;100.00
7660;BME280;3872;47.902;8.162;2023-05-29T01:09:47;91931.59;;;10.33;100.00
7660;BME280;3872;47.902;8.162;2023-05-29T01:12:22;91935.63;;;10.57;100.00
7660;BME280;3872;47.902;8.162;2023-05-29T01:15:09;91935.44;;;10.68;100.00
7660;BME280;3872;47.902;8.162;2023-05-29T01:17:48;91935.81;;;10.61;100.00
7660;BME280;3872;47.902;8.162;2023-05-29T01:20:26;91934.38;;;10.69;100.00
7660;BME280;3872;47.902;8.162;2023-05-29T01:23:09;91932.31;;;10.66;100.00
7660;BME280;3872;47.902;8.162;2023-05-29T01:25:50;91932.78;;;10.68;100.00
7660;BME280;3872;47.902;8.162;2023-05-29T01:28:26;91932.78;;;10.40;100.00
7660;BME280;3872;47.902;8.162;2023-05-29T01:30:54;91926.75;;;10.53;100.00
7660;BME280;3872;47.902;8.162;2023-05-29T01:33:23;91932.16;;;9.97;100.00
7660;BME280;3872;47.902;8.162;2023-05-29T01:35:50;91934.63;;;10.40;100.00
7660;BME280;3872;47.902;8.162;2023-05-29T01:38:16;91938.69;;;10.18;100.00
7660;BME280;3872;47.902;8.162;2023-05-29T01:40:43;91934.84;;;10.43;100.00
7660;BME280;3872;47.902;8.162;2023-05-29T01:43:10;91936.97;;;10.41;100.00
7660;BME280;3872;47.902;8.162;2023-05-29T01:45:40;91930.31;;;9.98;100.00
7660;BME280;3872;47.902;8.162;2023-05-29T01:48:07;91939.56;;;9.95;100.00
7660;BME280;3872;47.902;8.162;2023-05-29T01:50:35;91936.22;;;9.57;100.00
7660;BME280;3872;47.902;8.162;2023-05-29T01:53:02;91934.75;;;9.51;100.00
7660;BME280;3872;47.902;8.162;2023-05-29T01:55:28;91931.59;;;9.49;100.00
7660;BME280;3872;47.902;8.162;2023-05-29T01:57:55;91934.34;;;9.76;100.00
7660;BME280;3872;47.902;8.162;2023-05-29T02:00:23;91934.44;;;9.15;100.00
7660;BME280;3872;47.902;8.162;2023-05-29T02:02:51;91933.59;;;9.90;100.00
7660;BME280;3872;47.902;8.162;2023-05-29T02:05:17;91925.31;;;9.82;100.00
7660;BME280;3872;47.902;8.162;2023-05-29T02:07:44;91929.84;;;9.45;100.00
7660;BME280;3872;47.902;8.162;2023-05-29T02:10:11;91929.03;;;9.63;100.00
7660;BME280;3872;47.902;8.162;2023-05-29T02:12:38;91927.28;;;9.39;100.00
7660;BME280;3872;47.902;8.162;2023-05-29T02:15:05;91928.91;;;9.35;100.00
7660;BME280;3872;47.902;8.162;2023-05-29T02:17:33;91928.88;;;8.98;100.00
7660;BME280;3872;47.902;8.162;2023-05-29T02:20:01;91922.38;;;9.14;100.00
7660;BME280;3872;47.902;8.162;2023-05-29T02:22:28;91927.47;;;9.24;100.00
7660;BME280;3872;47.902;8.162;2023-05-29T02:24:55;91926.63;;;9.10;100.00
7660;BME280;3872;47.902;8.162;2023-05-29T02:27:21;91918.03;;;8.86;100.00
7660;BME280;3872;47.902;8.162;2023-05-29T02:29:48;91924.84;;;9.06;100.00
7660;BME280;3872;47.902;8.162;2023-05-29T02:32:14;91918.19;;;8.23;100.00
7660;BME280;3872;47.902;8.162;2023-05-29T02:34:41;91919.69;;;8.58;100.00
7660;BME280;3872;47.902;8.162;2023-05-29T02:37:09;91921.38;;;8.91;100.00
7660;BME280;3872;47.902;8.162;2023-05-29T02:39:35;91927.03;;;8.80;100.00
7660;BME280;3872;47.902;8.162;2023-05-29T02:42:02;91924.84;;;8.87;100.00
7660;BME280;3872;47.902;8.162;2023-05-29T02:44:29;91926.81;;;8.52;100.00
7660;BME280;3872;47.902;8.162;2023-05-29T02:46:56;91925.28;;;8.70;100.00
7660;BME280;3872;47.902;8.162;2023-05-29T02:49:22;91928.69;;;8.94;100.00
7660;BME280;3872;47.902;8.162;2023-05-29T02:51:49;91929.91;;;9.21;100.00
7660;BME280;3872;47.902;8.162;2023-05-29T02:54:18;91915.56;;;9.13;100.00
7660;BME280;3872;47.902;8.162;2023-05-29T02:56:46;91918.81;;;9.24;100.00
7660;BME280;3872;47.902;8.162;2023-05-29T02:59:12;91921.75;;;9.41;100.00
7660;BME280;3872;47.902;8.162;2023-05-29T03:01:39;91926.69;;;9.05;100.00
7660;BME280;3872;47.902;8.162;2023-05-29T03:04:06;91927.81;;;8.80;100.00
7660;BME280;3872;47.902;8.162;2023-05-29T03:06:32;91927.66;;;8.72;100.00
7660;BME280;3872;47.902;8.162;2023-05-29T03:08:59;91920.31;;;8.92;100.00
7660;BME280;3872;47.902;8.162;2023-05-29T03:11:27;91919.78;;;8.90;100.00
7660;BME280;3872;47.902;8.162;2023-05-29T03:13:54;91915.34;;;8.67;100.00
7660;BME280;3872;47.902;8.162;2023-05-29T03:16:20;91914.91;;;9.02;100.00
7660;BME280;3872;47.902;8.162;2023-05-29T03:18:47;91911.94;;;8.90;100.00
7660;BME280;3872;47.902;8.162;2023-05-29T03:21:18;91917.31;;;8.56;100.00
7660;BME280;3872;47.902;8.162;2023-05-29T03:23:45;91914.41;;;8.34;100.00
7660;BME280;3872;47.902;8.162;2023-05-29T03:26:12;91917.06;;;8.58;100.00
7660;BME280;3872;47.902;8.162;2023-05-29T03:28:41;91912.69;;;8.48;100.00
7660;BME280;3872;47.902;8.162;2023-05-29T03:31:09;91920.16;;;8.60;100.00
7660;BME280;3872;47.902;8.162;2023-05-29T03:33:36;91909.91;;;8.63;100.00
7660;BME280;3872;47.902;8.162;2023-05-29T03:36:16;91912.72;;;8.67;100.00
7660;BME280;3872;47.902;8.162;2023-05-29T03:38:43;91912.50;;;8.87;100.00
7660;BME280;3872;47.902;8.162;2023-05-29T03:41:10;91912.25;;;8.12;100.00
7660;BME280;3872;47.902;8.162;2023-05-29T03:43:37;91918.34;;;8.37;100.00
7660;BME280;3872;47.902;8.162;2023-05-29T03:46:06;91915.56;;;8.52;100.00
7660;BME280;3872;47.902;8.162;2023-05-29T03:48:34;91918.81;;;8.62;100.00
7660;BME280;3872;47.902;8.162;2023-05-29T03:51:01;91914.28;;;8.20;100.00
7660;BME280;3872;47.902;8.162;2023-05-29T03:53:33;91916.56;;;8.27;100.00
7660;BME280;3872;47.902;8.162;2023-05-29T03:55:59;91916.81;;;8.54;100.00
7660;BME280;3872;47.902;8.162;2023-05-29T03:58:26;91918.00;;;8.43;100.00
7660;BME280;3872;47.902;8.162;2023-05-29T04:00:53;91918.06;;;8.38;100.00
7660;BME280;3872;47.902;8.162;2023-05-29T04:03:21;91922.72;;;8.12;100.00
7660;BME280;3872;47.902;8.162;2023-05-29T04:05:48;91914.22;;;8.25;100.00
7660;BME280;3872;47.902;8.162;2023-05-29T04:08:15;91924.75;;;8.20;100.00
7660;BME280;3872;47.902;8.162;2023-05-29T04:10:41;91921.34;;;8.49;100.00
7660;BME280;3872;47.902;8.162;2023-05-29T04:13:08;91922.19;;;8.44;100.00
7660;BME280;3872;47.902;8.162;2023-05-29T04:15:35;91923.19;;;8.48;100.00
7660;BME280;3872;47.902;8.162;2023-05-29T04:18:02;91928.66;;;8.23;100.00
7660;BME280;3872;47.902;8.162;2023-05-29T04:20:30;91929.53;;;7.84;100.00
7660;BME280;3872;47.902;8.162;2023-05-29T04:22:57;91938.59;;;8.31;100.00
7660;BME280;3872;47.902;8.162;2023-05-29T04:25:23;91941.44;;;8.58;100.00
7660;BME280;3872;47.902;8.162;2023-05-29T04:27:50;91943.47;;;8.85;100.00
7660;BME280;3872;47.902;8.162;2023-05-29T04:30:19;91952.03;;;8.72;100.00
7660;BME280;3872;47.902;8.162;2023-05-29T04:32:47;91943.38;;;8.48;100.00
7660;BME280;3872;47.902;8.162;2023-05-29T04:35:14;91948.56;;;8.77;100.00
7660;BME280;3872;47.902;8.162;2023-05-29T04:37:50;91944.00;;;9.06;100.00
7660;BME280;3872;47.902;8.162;2023-05-29T04:40:18;91956.78;;;8.94;100.00
7660;BME280;3872;47.902;8.162;2023-05-29T04:42:45;91958.34;;;9.32;100.00
7660;BME280;3872;47.902;8.162;2023-05-29T04:45:13;91958.44;;;9.27;100.00
7660;BME280;3872;47.902;8.162;2023-05-29T04:47:40;91960.91;;;9.19;100.00
7660;BME280;3872;47.902;8.162;2023-05-29T04:50:11;91958.53;;;8.98;100.00
7660;BME280;3872;47.902;8.162;2023-05-29T04:52:38;91957.34;;;9.10;100.00
7660;BME280;3872;47.902;8.162;2023-05-29T04:55:09;91955.22;;;9.68;100.00
7660;BME280;3872;47.902;8.162;2023-05-29T04:57:37;91960.84;;;9.42;100.00
7660;BME280;3872;47.902;8.162;2023-05-29T05:00:07;91960.34;;;9.78;100.00
7660;BME280;3872;47.902;8.162;2023-05-29T05:02:36;91969.44;;;9.48;100.00
7660;BME280;3872;47.902;8.162;2023-05-29T05:05:03;91966.53;;;9.68;100.00
7660;BME280;3872;47.902;8.162;2023-05-29T05:07:30;91968.38;;;9.87;100.00
7660;BME280;3872;47.902;8.162;2023-05-29T05:09:57;91962.75;;;9.74;100.00
7660;BME280;3872;47.902;8.162;2023-05-29T05:12:27;91964.31;;;9.75;100.00
7660;BME280;3872;47.902;8.162;2023-05-29T05:14:54;91957.47;;;10.58;100.00
7660;BME280;3872;47.902;8.162;2023-05-29T05:17:21;91962.25;;;10.24;100.00
7660;BME280;3872;47.902;8.162;2023-05-29T05:19:47;91964.38;;;10.95;100.00
7660;BME280;3872;47.902;8.162;2023-05-29T05:22:15;91965.09;;;10.87;100.00
7660;BME280;3872;47.902;8.162;2023-05-29T05:24:42;91963.69;;;11.03;100.00
7660;BME280;3872;47.902;8.162;2023-05-29T05:27:08;91964.50;;;10.90;100.00
7660;BME280;3872;47.902;8.162;2023-05-29T05:29:36;91973.16;;;11.18;100.00
7660;BME280;3872;47.902;8.162;2023-05-29T05:32:04;91961.25;;;11.20;100.00
7660;BME280;3872;47.902;8.162;2023-05-29T05:34:31;91967.13;;;11.53;100.00
7660;BME280;3872;47.902;8.162;2023-05-29T05:36:57;91960.38;;;11.61;100.00
7660;BME280;3872;47.902;8.162;2023-05-29T05:39:24;91960.16;;;12.07;100.00
7660;BME280;3872;47.902;8.162;2023-05-29T05:41:51;91954.56;;;12.31;100.00
7660;BME280;3872;47.902;8.162;2023-05-29T05:44:36;91949.47;;;12.65;100.00
7660;BME280;3872;47.902;8.162;2023-05-29T05:47:08;91951.44;;;12.90;100.00
7660;BME280;3872;47.902;8.162;2023-05-29T05:49:35;91956.22;;;13.19;100.00
7660;BME280;3872;47.902;8.162;2023-05-29T05:52:02;91950.56;;;12.64;100.00
7660;BME280;3872;47.902;8.162;2023-05-29T05:54:28;91952.50;;;13.29;100.00
7660;BME280;3872;47.902;8.162;2023-05-29T05:56:55;91951.75;;;13.37;100.00
7660;BME280;3872;47.902;8.162;2023-05-29T05:59:23;91952.06;;;13.27;100.00
7660;BME280;3872;47.902;8.162;2023-05-29T06:01:51;91945.44;;;13.98;93.26
7660;BME280;3872;47.902;8.162;2023-05-29T06:04:18;91946.19;;;14.07;90.45
7660;BME280;3872;47.902;8.162;2023-05-29T06:06:45;91947.91;;;13.86;92.89
7660;BME280;3872;47.902;8.162;2023-05-29T06:09:11;91949.78;;;13.86;94.48
7660;BME280;3872;47.902;8.162;2023-05-29T06:11:38;91946.13;;;14.59;89.57
7660;BME280;3872;47.902;8.162;2023-05-29T06:14:04;91945.50;;;15.09;86.08
7660;BME280;3872;47.902;8.162;2023-05-29T06:16:31;91948.78;;;15.35;83.78
7660;BME280;3872;47.902;8.162;2023-05-29T06:18:59;91948.19;;;15.29;82.06
7660;BME280;3872;47.902;8.162;2023-05-29T06:21:27;91945.44;;;15.55;80.65
7660;BME280;3872;47.902;8.162;2023-05-29T06:23:55;91951.72;;;15.72;79.49
7660;BME280;3872;47.902;8.162;2023-05-29T06:26:23;91946.56;;;15.75;79.18
7660;BME280;3872;47.902;8.162;2023-05-29T06:28:50;91947.91;;;16.02;75.85
7660;BME280;3872;47.902;8.162;2023-05-29T06:31:18;91947.84;;;16.11;75.57
7660;BME280;3872;47.902;8.162;2023-05-29T06:33:44;91947.56;;;16.24;74.60
7660;BME280;3872;47.902;8.162;2023-05-29T06:36:12;91948.09;;;16.51;77.26
7660;BME280;3872;47.902;8.162;2023-05-29T06:38:39;91941.09;;;16.67;72.48
7660;BME280;3872;47.902;8.162;2023-05-29T06:41:05;91952.59;;;16.71;69.04
7660;BME280;3872;47.902;8.162;2023-05-29T06:43:33;91949.31;;;16.98;68.68
7660;BME280;3872;47.902;8.162;2023-05-29T06:46:02;91952.34;;;17.21;69.44
7660;BME280;3872;47.902;8.162;2023-05-29T06:48:32;91959.75;;;16.58;71.15
7660;BME280;3872;47.902;8.162;2023-05-29T06:50:59;91952.78;;;17.35;66.34
7660;BME280;3872;47.902;8.162;2023-05-29T06:53:45;91951.34;;;17.86;67.44
7660;BME280;3872;47.902;8.162;2023-05-29T06:56:13;91945.34;;;18.29;60.12
7660;BME280;3872;47.902;8.162;2023-05-29T06:58:40;91943.91;;;18.48;56.82
7660;BME280;3872;47.902;8.162;2023-05-29T07:01:06;91949.44;;;18.27;53.35
7660;BME280;3872;47.902;8.162;2023-05-29T07:03:34;91949.09;;;18.68;55.50
7660;BME280;3872;47.902;8.162;2023-05-29T07:06:03;91947.56;;;18.99;53.12
7660;BME280;3872;47.902;8.162;2023-05-29T07:08:30;91950.59;;;19.29;50.99
7660;BME280;3872;47.902;8.162;2023-05-29T07:10:58;91951.38;;;19.45;51.04
7660;BME280;3872;47.902;8.162;2023-05-29T07:13:25;91944.69;;;19.51;49.31
7660;BME280;3872;47.902;8.162;2023-05-29T07:15:52;91951.31;;;19.10;47.21
7660;BME280;3872;47.902;8.162;2023-05-29T07:18:24;91953.59;;;19.43;48.10
7660;BME280;3872;47.902;8.162;2023-05-29T07:20:51;91952.59;;;19.63;48.17
7660;BME280;3872;47.902;8.162;2023-05-29T07:23:20;91958.28;;;19.97;46.20
7660;BME280;3872;47.902;8.162;2023-05-29T07:25:46;91959.16;;;20.01;45.14
7660;BME280;3872;47.902;8.162;2023-05-29T07:28:14;91959.13;;;19.34;45.17
7660;BME280;3872;47.902;8.162;2023-05-29T07:30:41;91958.66;;;19.95;45.82
7660;BME280;3872;47.902;8.162;2023-05-29T07:33:08;91963.97;;;20.30;46.67
7660;BME280;3872;47.902;8.162;2023-05-29T07:35:35;91961.66;;;19.93;45.21
7660;BME280;3872;47.902;8.162;2023-05-29T07:38:03;91961.31;;;20.68;42.67
7660;BME280;3872;47.902;8.162;2023-05-29T07:40:31;91957.53;;;20.50;43.16
7660;BME280;3872;47.902;8.162;2023-05-29T07:43:12;91967.78;;;19.94;43.58
7660;BME280;3872;47.902;8.162;2023-05-29T07:45:55;91959.75;;;20.48;40.89
7660;BME280;3872;47.902;8.162;2023-05-29T07:48:22;91968.16;;;19.77;42.07
7660;BME280;3872;47.902;8.162;2023-05-29T07:50:50;91966.34;;;20.16;41.67
7660;BME280;3872;47.902;8.162;2023-05-29T07:53:17;91969.47;;;21.18;40.25
7660;BME280;3872;47.902;8.162;2023-05-29T07:55:45;91965.09;;;21.29;41.00
7660;BME280;3872;47.902;8.162;2023-05-29T07:58:12;91966.88;;;20.60;38.93
7660;BME280;3872;47.902;8.162;2023-05-29T08:00:43;91971.69;;;21.58;41.84
7660;BME280;3872;47.902;8.162;2023-05-29T08:03:11;91972.06;;;21.82;39.65
7660;BME280;3872;47.902;8.162;2023-05-29T08:06:13;91961.94;;;21.95;38.33
7660;BME280;3872;47.902;8.162;2023-05-29T08:08:40;91973.25;;;21.36;39.94
7660;BME280;3872;47.902;8.162;2023-05-29T08:11:06;91973.81;;;21.03;39.23
7660;BME280;3872;47.902;8.162;2023-05-29T08:13:34;91970.19;;;21.15;41.04
7660;BME280;3872;47.902;8.162;2023-05-29T08:16:00;91959.78;;;21.55;38.59
7660;BME280;3872;47.902;8.162;2023-05-29T08:18:30;91956.66;;;21.99;39.27
7660;BME280;3872;47.902;8.162;2023-05-29T08:20:58;91962.53;;;21.85;40.34
7660;BME280;3872;47.902;8.162;2023-05-29T08:23:25;91954.41;;;22.31;36.63
7660;BME280;3872;47.902;8.162;2023-05-29T08:25:51;91963.31;;;21.59;37.74
7660;BME280;3872;47.902;8.162;2023-05-29T08:28:18;91958.63;;;21.79;38.84
7660;BME280;3872;47.902;8.162;2023-05-29T08:30:44;91965.47;;;21.99;37.85
7660;BME280;3872;47.902;8.162;2023-05-29T08:33:10;91971.88;;;21.95;37.89
7660;BME280;3872;47.902;8.162;2023-05-29T08:35:39;91970.34;;;22.20;36.22
7660;BME280;3872;47.902;8.162;2023-05-29T08:38:05;91964.75;;;22.02;37.83
7660;BME280;3872;47.902;8.162;2023-05-29T08:40:32;91981.56;;;21.54;37.12
7660;BME280;3872;47.902;8.162;2023-05-29T08:43:06;91978.81;;;22.22;36.53
7660;BME280;3872;47.902;8.162;2023-05-29T08:45:34;91976.31;;;22.36;37.84
7660;BME280;3872;47.902;8.162;2023-05-29T08:48:04;91974.19;;;22.79;35.35
7660;BME280;3872;47.902;8.162;2023-05-29T08:50:32;91969.19;;;22.81;37.39
7660;BME280;3872;47.902;8.162;2023-05-29T08:53:01;91983.97;;;22.08;38.49
7660;BME280;3872;47.902;8.162;2023-05-29T08:55:28;91985.41;;;22.02;37.52
7660;BME280;3872;47.902;8.162;2023-05-29T08:57:55;91971.13;;;22.80;36.56
7660;BME280;3872;47.902;8.162;2023-05-29T09:00:23;91982.34;;;22.03;38.14
7660;BME280;3872;47.902;8.162;2023-05-29T09:02:54;91985.50;;;22.09;34.76
7660;BME280;3872;47.902;8.162;2023-05-29T09:05:20;91988.88;;;22.62;35.81
7660;BME280;3872;47.902;8.162;2023-05-29T09:07:47;91990.94;;;22.72;34.58
7660;BME280;3872;47.902;8.162;2023-05-29T09:10:16;91997.50;;;22.18;37.23
7660;BME280;3872;47.902;8.162;2023-05-29T09:12:43;91994.44;;;22.16;35.58
7660;BME280;3872;47.902;8.162;2023-05-29T09:15:17;91992.16;;;21.69;39.03
7660;BME280;3872;47.902;8.162;2023-05-29T09:17:44;91992.16;;;21.96;39.00
7660;BME280;3872;47.902;8.162;2023-05-29T09:20:17;91994.66;;;22.64;39.25
7660;BME280;3872;47.902;8.162;2023-05-29T09:22:51;91982.19;;;23.09;36.65
7660;BME280;3872;47.902;8.162;2023-05-29T09:25:20;91981.09;;;24.01;34.64
7660;BME280;3872;47.902;8.162;2023-05-29T09:27:50;91979.94;;;23.14;37.05
7660;BME280;3872;47.902;8.162;2023-05-29T09:30:31;91996.25;;;22.69;36.17
7660;BME280;3872;47.902;8.162;2023-05-29T09:32:58;91987.44;;;23.38;34.70
7660;BME280;3872;47.902;8.162;2023-05-29T09:35:25;91998.53;;;23.33;37.74
7660;BME280;3872;47.902;8.162;2023-05-29T09:37:52;91994.19;;;23.59;37.72
7660;BME280;3872;47.902;8.162;2023-05-29T09:40:20;91984.81;;;23.90;35.44
7660;BME280;3872;47.902;8.162;2023-05-29T09:42:46;91989.94;;;24.09;36.47
7660;BME280;3872;47.902;8.162;2023-05-29T09:45:16;91988.75;;;24.03;38.13
7660;BME280;3872;47.902;8.162;2023-05-29T09:47:43;91988.97;;;24.28;36.10
7660;BME280;3872;47.902;8.162;2023-05-29T09:50:18;91998.91;;;24.24;36.37
7660;BME280;3872;47.902;8.162;2023-05-29T09:52:45;91995.72;;;23.60;34.29
7660;BME280;3872;47.902;8.162;2023-05-29T09:55:13;91985.50;;;23.76;36.83
7660;BME280;3872;47.902;8.162;2023-05-29T09:57:46;91993.91;;;23.71;35.75
7660;BME280;3872;47.902;8.162;2023-05-29T10:00:13;91986.03;;;23.96;35.97
7660;BME280;3872;47.902;8.162;2023-05-29T10:02:41;91982.00;;;24.19;36.92
7660;BME280;3872;47.902;8.162;2023-05-29T10:05:09;91980.19;;;25.39;33.95
7660;BME280;3872;47.902;8.162;2023-05-29T10:07:37;91981.06;;;23.98;35.86
7660;BME280;3872;47.902;8.162;2023-05-29T10:10:05;91973.63;;;25.22;35.51
7660;BME280;3872;47.902;8.162;2023-05-29T10:12:36;91973.81;;;24.71;33.12
7660;BME280;3872;47.902;8.162;2023-05-29T10:15:11;91969.06;;;25.65;32.48
7660;BME280;3872;47.902;8.162;2023-05-29T10:17:39;91956.31;;;25.37;33.74
7660;BME280;3872;47.902;8.162;2023-05-29T10:20:12;91973.81;;;24.09;31.89
7660;BME280;3872;47.902;8.162;2023-05-29T10:22:44;91984.34;;;24.28;32.90
7660;BME280;3872;47.902;8.162;2023-05-29T10:25:13;91972.09;;;24.34;33.75
7660;BME280;3872;47.902;8.162;2023-05-29T10:27:41;91978.31;;;24.52;34.46
7660;BME280;3872;47.902;8.162;2023-05-29T10:30:15;91970.88;;;24.25;33.73
7660;BME280;3872;47.902;8.162;2023-05-29T10:32:58;91972.59;;;24.57;31.44
7660;BME280;3872;47.902;8.162;2023-05-29T10:35:31;91965.94;;;25.38;32.22
7660;BME280;3872;47.902;8.162;2023-05-29T10:38:10;91963.56;;;25.05;32.04
7660;BME280;3872;47.902;8.162;2023-05-29T10:40:38;91975.16;;;25.30;32.00
7660;BME280;3872;47.902;8.162;2023-05-29T10:43:04;91979.09;;;25.61;33.64
7660;BME280;3872;47.902;8.162;2023-05-29T10:45:51;91967.53;;;26.10;31.52
7660;BME280;3872;47.902;8.162;2023-05-29T10:48:37;91960.91;;;26.54;29.55
7660;BME280;3872;47.902;8.162;2023-05-29T10:51:05;91953.31;;;27.21;30.34
7660;BME280;3872;47.902;8.162;2023-05-29T10:53:32;91960.28;;;27.19;30.87
7660;BME280;3872;47.902;8.162;2023-05-29T10:55:59;91947.78;;;26.63;33.85
7660;BME280;3872;47.902;8.162;2023-05-29T10:58:27;91963.31;;;25.81;32.55
7660;BME280;3872;47.902;8.162;2023-05-29T11:00:54;91942.81;;;26.54;29.04
7660;BME280;3872;47.902;8.162;2023-05-29T11:03:24;91956.84;;;24.59;32.60
7660;BME280;3872;47.902;8.162;2023-05-29T11:05:58;91963.25;;;25.52;32.11
7660;BME280;3872;47.902;8.162;2023-05-29T11:08:29;91960.59;;;26.20;32.42
7660;BME280;3872;47.902;8.162;2023-05-29T11:10:58;91959.03;;;26.08;31.41
7660;BME280;3872;47.902;8.162;2023-05-29T11:13:27;91964.03;;;26.45;28.94
7660;BME280;3872;47.902;8.162;2023-05-29T11:16:11;91977.19;;;25.68;32.14
7660;BME280;3872;47.902;8.162;2023-05-29T11:18:40;91955.91;;;26.56;29.18
7660;BME280;3872;47.902;8.162;2023-05-29T11:21:18;91963.69;;;26.15;31.33
7660;BME280;3872;47.902;8.162;2023-05-29T11:23:50;91952.69;;;27.65;27.13
7660;BME280;3872;47.902;8.162;2023-05-29T11:26:17;91959.41;;;26.42;29.72
7660;BME280;3872;47.902;8.162;2023-05-29T11:28:44;91952.22;;;27.78;28.25
7660;BME280;3872;47.902;8.162;2023-05-29T11:31:13;91947.34;;;26.75;28.83
7660;BME280;3872;47.902;8.162;2023-05-29T11:33:40;91952.03;;;26.64;30.12
7660;BME280;3872;47.902;8.162;2023-05-29T11:36:08;91942.97;;;27.75;29.37
7660;BME280;3872;47.902;8.162;2023-05-29T11:38:36;91945.56;;;26.11;29.11
7660;BME280;3872;47.902;8.162;2023-05-29T11:41:03;91951.34;;;25.35;30.41
7660;BME280;3872;47.902;8.162;2023-05-29T11:43:29;91942.53;;;25.92;29.43
7660;BME280;3872;47.902;8.162;2023-05-29T11:45:56;91950.56;;;26.34;28.73
7660;BME280;3872;47.902;8.162;2023-05-29T11:48:24;91944.66;;;26.78;29.01
7660;BME280;3872;47.902;8.162;2023-05-29T11:50:50;91943.84;;;26.81;27.99
7660;BME280;3872;47.902;8.162;2023-05-29T11:53:18;91947.41;;;26.61;27.83
7660;BME280;3872;47.902;8.162;2023-05-29T11:55:44;91941.75;;;27.80;26.65
7660;BME280;3872;47.902;8.162;2023-05-29T11:58:11;91941.66;;;28.38;25.08
7660;BME280;3872;47.902;8.162;2023-05-29T12:00:38;91954.94;;;27.08;26.98
7660;BME280;3872;47.902;8.162;2023-05-29T12:03:06;91941.75;;;27.83;25.35
7660;BME280;3872;47.902;8.162;2023-05-29T12:05:45;91952.78;;;28.48;26.42
7660;BME280;3872;47.902;8.162;2023-05-29T12:08:12;91940.63;;;28.63;25.92
7660;BME280;3872;47.902;8.162;2023-05-29T12:10:46;91952.56;;;28.28;24.81
7660;BME280;3872;47.902;8.162;2023-05-29T12:13:13;91949.84;;;29.33;23.99
7660;BME280;3872;47.902;8.162;2023-05-29T12:15:40;91938.78;;;29.74;23.87
7660;BME280;3872;47.902;8.162;2023-05-29T12:18:07;91936.59;;;29.92;23.21
7660;BME280;3872;47.902;8.162;2023-05-29T12:20:35;91947.53;;;27.23;26.94
7660;BME280;3872;47.902;8.162;2023-05-29T12:23:02;91957.03;;;27.45;27.73
7660;BME280;3872;47.902;8.162;2023-05-29T12:25:28;91950.00;;;28.10;26.95
7660;BME280;3872;47.902;8.162;2023-05-29T12:27:56;91954.22;;;26.97;24.99
7660;BME280;3872;47.902;8.162;2023-05-29T12:30:24;91932.91;;;28.61;25.05
7660;BME280;3872;47.902;8.162;2023-05-29T12:32:51;91939.56;;;28.12;23.60
7660;BME280;3872;47.902;8.162;2023-05-29T12:35:19;91946.84;;;27.08;24.91
7660;BME280;3872;47.902;8.162;2023-05-29T12:37:49;91947.72;;;29.17;24.16
7660;BME280;3872;47.902;8.162;2023-05-29T12:40:21;91956.91;;;28.18;27.27
7660;BME280;3872;47.902;8.162;2023-05-29T12:42:48;91944.44;;;28.65;29.26
7660;BME280;3872;47.902;8.162;2023-05-29T12:45:17;91942.16;;;31.15;24.73
7660;BME280;3872;47.902;8.162;2023-05-29T12:47:45;91944.53;;;29.80;24.52
7660;BME280;3872;47.902;8.162;2023-05-29T12:50:31;91947.63;;;28.19;24.81
7660;BME280;3872;47.902;8.162;2023-05-29T12:53:00;91945.88;;;29.68;26.73
7660;BME280;3872;47.902;8.162;2023-05-29T12:55:29;91956.00;;;29.64;25.93
7660;BME280;3872;47.902;8.162;2023-05-29T12:57:58;91951.41;;;29.31;26.07
7660;BME280;3872;47.902;8.162;2023-05-29T13:00:25;91967.69;;;28.25;24.26
7660;BME280;3872;47.902;8.162;2023-05-29T13:02:52;91958.22;;;30.43;21.75
7660;BME280;3872;47.902;8.162;2023-05-29T13:05:19;91956.19;;;28.55;24.86
7660;BME280;3872;47.902;8.162;2023-05-29T13:07:48;91955.31;;;28.62;22.84
7660;BME280;3872;47.902;8.162;2023-05-29T13:10:16;91962.38;;;29.77;21.83
7660;BME280;3872;47.902;8.162;2023-05-29T13:12:43;91957.78;;;29.17;22.35
7660;BME280;3872;47.902;8.162;2023-05-29T13:15:11;91952.41;;;29.44;20.71
7660;BME280;3872;47.902;8.162;2023-05-29T13:17:37;91947.75;;;29.98;20.36
7660;BME280;3872;47.902;8.162;2023-05-29T13:20:07;91952.97;;;29.58;21.14
7660;BME280;3872;47.902;8.162;2023-05-29T13:22:35;91947.19;;;29.83;20.85
7660;BME280;3872;47.902;8.162;2023-05-29T13:25:01;91956.50;;;28.95;21.46
7660;BME280;3872;47.902;8.162;2023-05-29T13:27:30;91950.56;;;28.76;22.65